sensor_id;sensor_type;location;lat;lon;timestamp;P1;P2;P0
80692;PMS5003;70055;39.436;-77.514;2023-06-10T00:01:50;29;28;
80692;PMS5003;70055;39.436;-77.514;2023-06-10T00:04:19;24;24;
80692;PMS5003;70055;39.436;-77.514;2023-06-10T00:06:47;25;25;
80692;PMS5003;70055;39.436;-77.514;2023-06-10T00:09:15;25;25;
80692;PMS5003;70055;39.436;-77.514;2023-06-10T00:11:43;26;25;
80692;PMS5003;70055;39.436;-77.514;2023-06-10T00:14:12;25;25;
80692;PMS5003;70055;39.436;-77.514;2023-06-10T00:16:41;30;30;
80692;PMS5003;70055;39.436;-77.514;2023-06-10T00:19:09;30;30;
80692;PMS5003;70055;39.436;-77.514;2023-06-10T00:21:36;26;26;
80692;PMS5003;70055;39.436;-77.514;2023-06-10T00:24:06;27;25;
80692;PMS5003;70055;39.436;-77.514;2023-06-10T00:26:35;29;27;
80692;PMS5003;70055;39.436;-77.514;2023-06-10T00:29:04;22;22;
80692;PMS5003;70055;39.436;-77.514;2023-06-10T00:31:33;23;23;
80692;PMS5003;70055;39.436;-77.514;2023-06-10T00:34:02;25;24;
80692;PMS5003;70055;39.436;-77.514;2023-06-10T00:36:30;29;28;
80692;PMS5003;70055;39.436;-77.514;2023-06-10T00:38:59;25;25;
80692;PMS5003;70055;39.436;-77.514;2023-06-10T00:41:28;27;26;
80692;PMS5003;70055;39.436;-77.514;2023-06-10T00:43:56;27;26;
80692;PMS5003;70055;39.436;-77.514;2023-06-10T00:46:24;26;26;
80692;PMS5003;70055;39.436;-77.514;2023-06-10T00:48:54;23;22;
80692;PMS5003;70055;39.436;-77.514;2023-06-10T00:51:23;23;23;
80692;PMS5003;70055;39.436;-77.514;2023-06-10T00:53:52;25;24;
80692;PMS5003;70055;39.436;-77.514;2023-06-10T00:56:21;26;25;
80692;PMS5003;70055;39.436;-77.514;2023-06-10T00:58:49;26;26;
80692;PMS5003;70055;39.436;-77.514;2023-06-10T01:01:18;25;24;
80692;PMS5003;70055;39.436;-77.514;2023-06-10T01:03:48;25;25;
80692;PMS5003;70055;39.436;-77.514;2023-06-10T01:06:20;26;24;
80692;PMS5003;70055;39.436;-77.514;2023-06-10T01:08:56;23;22;
80692;PMS5003;70055;39.436;-77.514;2023-06-10T01:11:38;22;22;
80692;PMS5003;70055;39.436;-77.514;2023-06-10T01:14:11;24;24;
80692;PMS5003;70055;39.436;-77.514;2023-06-10T01:16:39;23;23;
80692;PMS5003;70055;39.436;-77.514;2023-06-10T01:19:07;24;24;
80692;PMS5003;70055;39.436;-77.514;2023-06-10T01:21:37;26;25;
80692;PMS5003;70055;39.436;-77.514;2023-06-10T01:24:06;26;26;
80692;PMS5003;70055;39.436;-77.514;2023-06-10T01:26:35;30;28;
80692;PMS5003;70055;39.436;-77.514;2023-06-10T01:29:06;31;31;
80692;PMS5003;70055;39.436;-77.514;2023-06-10T01:31:41;26;25;
80692;PMS5003;70055;39.436;-77.514;2023-06-10T01:34:16;30;27;
80692;PMS5003;70055;39.436;-77.514;2023-06-10T01:36:48;30;29;
80692;PMS5003;70055;39.436;-77.514;2023-06-10T01:39:20;26;26;
80692;PMS5003;70055;39.436;-77.514;2023-06-10T01:41:52;31;30;
80692;PMS5003;70055;39.436;-77.514;2023-06-10T01:44:21;33;29;
80692;PMS5003;70055;39.436;-77.514;2023-06-10T01:46:50;29;28;
80692;PMS5003;70055;39.436;-77.514;2023-06-10T01:49:18;27;26;
80692;PMS5003;70055;39.436;-77.514;2023-06-10T01:51:46;33;28;
80692;PMS5003;70055;39.436;-77.514;2023-06-10T01:54:15;25;25;
80692;PMS5003;70055;39.436;-77.514;2023-06-10T01:56:42;22;22;
80692;PMS5003;70055;39.436;-77.514;2023-06-10T01:59:11;23;23;
80692;PMS5003;70055;39.436;-77.514;2023-06-10T02:01:41;23;23;
80692;PMS5003;70055;39.436;-77.514;2023-06-10T02:04:09;27;26;
80692;PMS5003;70055;39.436;-77.514;2023-06-10T02:06:37;24;24;
80692;PMS5003;70055;39.436;-77.514;2023-06-10T02:09:06;24;24;
80692;PMS5003;70055;39.436;-77.514;2023-06-10T02:11:34;25;25;
80692;PMS5003;70055;39.436;-77.514;2023-06-10T02:14:03;25;25;
80692;PMS5003;70055;39.436;-77.514;2023-06-10T02:16:31;24;24;
80692;PMS5003;70055;39.436;-77.514;2023-06-10T02:18:59;28;28;
80692;PMS5003;70055;39.436;-77.514;2023-06-10T02:21:27;25;25;
80692;PMS5003;70055;39.436;-77.514;2023-06-10T02:23:57;29;28;
80692;PMS5003;70055;39.436;-77.514;2023-06-10T02:26:26;26;26;
80692;PMS5003;70055;39.436;-77.514;2023-06-10T02:28:55;27;27;
80692;PMS5003;70055;39.436;-77.514;2023-06-10T02:31:24;32;30;
80692;PMS5003;70055;39.436;-77.514;2023-06-10T02:33:52;25;25;
80692;PMS5003;70055;39.436;-77.514;2023-06-10T02:36:21;29;28;
80692;PMS5003;70055;39.436;-77.514;2023-06-10T02:38:50;33;33;
80692;PMS5003;70055;39.436;-77.514;2023-06-10T02:41:19;32;30;
80692;PMS5003;70055;39.436;-77.514;2023-06-10T02:43:48;33;30;
80692;PMS5003;70055;39.436;-77.514;2023-06-10T02:46:17;29;28;
80692;PMS5003;70055;39.436;-77.514;2023-06-10T02:48:45;31;30;
80692;PMS5003;70055;39.436;-77.514;2023-06-10T02:51:14;27;27;
80692;PMS5003;70055;39.436;-77.514;2023-06-10T02:53:42;27;27;
80692;PMS5003;70055;39.436;-77.514;2023-06-10T02:56:11;29;27;
80692;PMS5003;70055;39.436;-77.514;2023-06-10T02:58:39;24;24;
80692;PMS5003;70055;39.436;-77.514;2023-06-10T03:01:07;25;24;
80692;PMS5003;70055;39.436;-77.514;2023-06-10T03:03:37;27;26;
80692;PMS5003;70055;39.436;-77.514;2023-06-10T03:06:05;25;25;
80692;PMS5003;70055;39.436;-77.514;2023-06-10T03:08:33;29;29;
80692;PMS5003;70055;39.436;-77.514;2023-06-10T03:11:02;28;27;
80692;PMS5003;70055;39.436;-77.514;2023-06-10T03:13:30;29;27;
80692;PMS5003;70055;39.436;-77.514;2023-06-10T03:15:59;27;27;
80692;PMS5003;70055;39.436;-77.514;2023-06-10T03:18:28;26;26;
80692;PMS5003;70055;39.436;-77.514;2023-06-10T03:20:56;28;28;
80692;PMS5003;70055;39.436;-77.514;2023-06-10T03:23:25;25;25;
80692;PMS5003;70055;39.436;-77.514;2023-06-10T03:25:53;27;27;
80692;PMS5003;70055;39.436;-77.514;2023-06-10T03:28:21;26;26;
80692;PMS5003;70055;39.436;-77.514;2023-06-10T03:30:49;22;21;
80692;PMS5003;70055;39.436;-77.514;2023-06-10T03:33:18;26;24;
80692;PMS5003;70055;39.436;-77.514;2023-06-10T03:35:47;23;22;
80692;PMS5003;70055;39.436;-77.514;2023-06-10T03:38:16;27;26;
80692;PMS5003;70055;39.436;-77.514;2023-06-10T03:40:44;26;26;
80692;PMS5003;70055;39.436;-77.514;2023-06-10T03:43:12;23;23;
80692;PMS5003;70055;39.436;-77.514;2023-06-10T03:45:40;25;25;
80692;PMS5003;70055;39.436;-77.514;2023-06-10T03:48:08;29;29;
80692;PMS5003;70055;39.436;-77.514;2023-06-10T03:50:37;26;26;
80692;PMS5003;70055;39.436;-77.514;2023-06-10T03:53:05;26;25;
80692;PMS5003;70055;39.436;-77.514;2023-06-10T03:55:34;28;28;
80692;PMS5003;70055;39.436;-77.514;2023-06-10T03:58:02;31;31;
80692;PMS5003;70055;39.436;-77.514;2023-06-10T04:00:30;28;27;
80692;PMS5003;70055;39.436;-77.514;2023-06-10T04:02:58;27;27;
80692;PMS5003;70055;39.436;-77.514;2023-06-10T04:05:26;28;27;
80692;PMS5003;70055;39.436;-77.514;2023-06-10T04:07:54;26;26;
80692;PMS5003;70055;39.436;-77.514;2023-06-10T04:10:22;25;25;
80692;PMS5003;70055;39.436;-77.514;2023-06-10T04:12:50;29;29;
80692;PMS5003;70055;39.436;-77.514;2023-06-10T04:15:19;28;28;
80692;PMS5003;70055;39.436;-77.514;2023-06-10T04:17:47;24;23;
80692;PMS5003;70055;39.436;-77.514;2023-06-10T04:20:17;27;26;
80692;PMS5003;70055;39.436;-77.514;2023-06-10T04:22:45;31;31;
80692;PMS5003;70055;39.436;-77.514;2023-06-10T04:25:13;33;32;
80692;PMS5003;70055;39.436;-77.514;2023-06-10T04:27:42;28;27;
80692;PMS5003;70055;39.436;-77.514;2023-06-10T04:30:11;35;33;
80692;PMS5003;70055;39.436;-77.514;2023-06-10T04:32:40;28;27;
80692;PMS5003;70055;39.436;-77.514;2023-06-10T04:35:11;32;31;
80692;PMS5003;70055;39.436;-77.514;2023-06-10T04:37:40;29;29;
80692;PMS5003;70055;39.436;-77.514;2023-06-10T04:40:08;32;31;
80692;PMS5003;70055;39.436;-77.514;2023-06-10T04:42:36;32;31;
80692;PMS5003;70055;39.436;-77.514;2023-06-10T04:45:04;28;28;
80692;PMS5003;70055;39.436;-77.514;2023-06-10T04:47:33;27;27;
80692;PMS5003;70055;39.436;-77.514;2023-06-10T04:50:01;27;25;
80692;PMS5003;70055;39.436;-77.514;2023-06-10T04:52:30;32;30;
80692;PMS5003;70055;39.436;-77.514;2023-06-10T04:54:58;29;29;
80692;PMS5003;70055;39.436;-77.514;2023-06-10T04:57:27;24;24;
80692;PMS5003;70055;39.436;-77.514;2023-06-10T04:59:55;33;32;
80692;PMS5003;70055;39.436;-77.514;2023-06-10T05:02:23;32;30;
80692;PMS5003;70055;39.436;-77.514;2023-06-10T05:04:51;30;29;
80692;PMS5003;70055;39.436;-77.514;2023-06-10T05:07:19;26;26;
80692;PMS5003;70055;39.436;-77.514;2023-06-10T05:09:46;25;24;
80692;PMS5003;70055;39.436;-77.514;2023-06-10T05:12:14;33;32;
80692;PMS5003;70055;39.436;-77.514;2023-06-10T05:14:42;30;29;
80692;PMS5003;70055;39.436;-77.514;2023-06-10T05:17:10;27;27;
80692;PMS5003;70055;39.436;-77.514;2023-06-10T05:19:39;27;26;
80692;PMS5003;70055;39.436;-77.514;2023-06-10T05:22:08;29;28;
80692;PMS5003;70055;39.436;-77.514;2023-06-10T05:24:36;29;29;
80692;PMS5003;70055;39.436;-77.514;2023-06-10T05:27:04;30;30;
80692;PMS5003;70055;39.436;-77.514;2023-06-10T05:29:33;28;28;
80692;PMS5003;70055;39.436;-77.514;2023-06-10T05:32:00;27;27;
80692;PMS5003;70055;39.436;-77.514;2023-06-10T05:34:28;32;31;
80692;PMS5003;70055;39.436;-77.514;2023-06-10T05:36:58;29;29;
80692;PMS5003;70055;39.436;-77.514;2023-06-10T05:39:26;29;28;
80692;PMS5003;70055;39.436;-77.514;2023-06-10T05:41:54;30;30;
80692;PMS5003;70055;39.436;-77.514;2023-06-10T05:44:22;28;28;
80692;PMS5003;70055;39.436;-77.514;2023-06-10T05:46:50;26;26;
80692;PMS5003;70055;39.436;-77.514;2023-06-10T05:49:18;31;30;
80692;PMS5003;70055;39.436;-77.514;2023-06-10T05:51:46;29;29;
80692;PMS5003;70055;39.436;-77.514;2023-06-10T05:54:13;26;25;
80692;PMS5003;70055;39.436;-77.514;2023-06-10T05:56:42;28;28;
80692;PMS5003;70055;39.436;-77.514;2023-06-10T05:59:10;34;34;
80692;PMS5003;70055;39.436;-77.514;2023-06-10T06:01:38;33;31;
80692;PMS5003;70055;39.436;-77.514;2023-06-10T06:04:07;32;31;
80692;PMS5003;70055;39.436;-77.514;2023-06-10T06:06:35;28;27;
80692;PMS5003;70055;39.436;-77.514;2023-06-10T06:09:05;27;27;
80692;PMS5003;70055;39.436;-77.514;2023-06-10T06:11:33;30;30;
80692;PMS5003;70055;39.436;-77.514;2023-06-10T06:14:02;31;31;
80692;PMS5003;70055;39.436;-77.514;2023-06-10T06:16:30;31;30;
80692;PMS5003;70055;39.436;-77.514;2023-06-10T06:18:58;30;30;
80692;PMS5003;70055;39.436;-77.514;2023-06-10T06:21:26;28;28;
80692;PMS5003;70055;39.436;-77.514;2023-06-10T06:23:54;34;33;
80692;PMS5003;70055;39.436;-77.514;2023-06-10T06:26:21;28;28;
80692;PMS5003;70055;39.436;-77.514;2023-06-10T06:28:50;28;26;
80692;PMS5003;70055;39.436;-77.514;2023-06-10T06:31:18;28;28;
80692;PMS5003;70055;39.436;-77.514;2023-06-10T06:33:46;28;28;
80692;PMS5003;70055;39.436;-77.514;2023-06-10T06:36:14;28;28;
80692;PMS5003;70055;39.436;-77.514;2023-06-10T06:38:42;33;33;
80692;PMS5003;70055;39.436;-77.514;2023-06-10T06:41:10;27;27;
80692;PMS5003;70055;39.436;-77.514;2023-06-10T06:43:38;28;28;
80692;PMS5003;70055;39.436;-77.514;2023-06-10T06:46:06;30;29;
80692;PMS5003;70055;39.436;-77.514;2023-06-10T06:48:33;29;29;
80692;PMS5003;70055;39.436;-77.514;2023-06-10T06:51:01;31;30;
80692;PMS5003;70055;39.436;-77.514;2023-06-10T06:53:29;32;32;
80692;PMS5003;70055;39.436;-77.514;2023-06-10T06:55:57;26;25;
80692;PMS5003;70055;39.436;-77.514;2023-06-10T06:58:25;31;29;
80692;PMS5003;70055;39.436;-77.514;2023-06-10T07:00:53;30;30;
80692;PMS5003;70055;39.436;-77.514;2023-06-10T07:03:21;30;30;
80692;PMS5003;70055;39.436;-77.514;2023-06-10T07:05:50;29;29;
80692;PMS5003;70055;39.436;-77.514;2023-06-10T07:08:18;27;27;
80692;PMS5003;70055;39.436;-77.514;2023-06-10T07:10:46;28;28;
80692;PMS5003;70055;39.436;-77.514;2023-06-10T07:13:14;29;28;
80692;PMS5003;70055;39.436;-77.514;2023-06-10T07:15:42;31;30;
80692;PMS5003;70055;39.436;-77.514;2023-06-10T07:18:10;30;29;
80692;PMS5003;70055;39.436;-77.514;2023-06-10T07:20:38;28;28;
80692;PMS5003;70055;39.436;-77.514;2023-06-10T07:23:05;27;27;
80692;PMS5003;70055;39.436;-77.514;2023-06-10T07:25:33;29;28;
80692;PMS5003;70055;39.436;-77.514;2023-06-10T07:28:01;33;31;
80692;PMS5003;70055;39.436;-77.514;2023-06-10T07:30:30;29;29;
80692;PMS5003;70055;39.436;-77.514;2023-06-10T07:32:57;29;28;
80692;PMS5003;70055;39.436;-77.514;2023-06-10T07:35:26;32;31;
80692;PMS5003;70055;39.436;-77.514;2023-06-10T07:37:53;29;29;
80692;PMS5003;70055;39.436;-77.514;2023-06-10T07:40:21;30;29;
80692;PMS5003;70055;39.436;-77.514;2023-06-10T07:42:50;25;25;
80692;PMS5003;70055;39.436;-77.514;2023-06-10T07:45:18;30;30;
80692;PMS5003;70055;39.436;-77.514;2023-06-10T07:47:46;31;30;
80692;PMS5003;70055;39.436;-77.514;2023-06-10T07:50:14;27;27;
80692;PMS5003;70055;39.436;-77.514;2023-06-10T07:52:43;30;30;
80692;PMS5003;70055;39.436;-77.514;2023-06-10T07:55:11;30;29;
80692;PMS5003;70055;39.436;-77.514;2023-06-10T07:57:39;26;26;
80692;PMS5003;70055;39.436;-77.514;2023-06-10T08:00:07;28;28;
80692;PMS5003;70055;39.436;-77.514;2023-06-10T08:02:36;23;23;
80692;PMS5003;70055;39.436;-77.514;2023-06-10T08:05:04;28;27;
80692;PMS5003;70055;39.436;-77.514;2023-06-10T08:07:32;33;32;
80692;PMS5003;70055;39.436;-77.514;2023-06-10T08:10:00;31;31;
80692;PMS5003;70055;39.436;-77.514;2023-06-10T08:12:29;34;32;
80692;PMS5003;70055;39.436;-77.514;2023-06-10T08:14:57;31;30;
80692;PMS5003;70055;39.436;-77.514;2023-06-10T08:17:25;29;29;
80692;PMS5003;70055;39.436;-77.514;2023-06-10T08:19:54;34;33;
80692;PMS5003;70055;39.436;-77.514;2023-06-10T08:22:21;33;32;
80692;PMS5003;70055;39.436;-77.514;2023-06-10T08:24:50;34;30;
80692;PMS5003;70055;39.436;-77.514;2023-06-10T08:27:18;31;30;
80692;PMS5003;70055;39.436;-77.514;2023-06-10T08:29:46;32;32;
80692;PMS5003;70055;39.436;-77.514;2023-06-10T08:32:13;30;30;
80692;PMS5003;70055;39.436;-77.514;2023-06-10T08:34:41;30;30;
80692;PMS5003;70055;39.436;-77.514;2023-06-10T08:37:09;30;27;
80692;PMS5003;70055;39.436;-77.514;2023-06-10T08:39:37;33;32;
80692;PMS5003;70055;39.436;-77.514;2023-06-10T08:42:08;35;34;
80692;PMS5003;70055;39.436;-77.514;2023-06-10T08:44:44;31;31;
80692;PMS5003;70055;39.436;-77.514;2023-06-10T08:47:16;31;31;
80692;PMS5003;70055;39.436;-77.514;2023-06-10T08:49:45;34;34;
80692;PMS5003;70055;39.436;-77.514;2023-06-10T08:52:14;32;32;
80692;PMS5003;70055;39.436;-77.514;2023-06-10T08:54:46;30;30;
80692;PMS5003;70055;39.436;-77.514;2023-06-10T08:57:19;31;31;
80692;PMS5003;70055;39.436;-77.514;2023-06-10T08:59:47;31;30;
80692;PMS5003;70055;39.436;-77.514;2023-06-10T09:02:16;29;29;
80692;PMS5003;70055;39.436;-77.514;2023-06-10T09:04:44;29;28;
80692;PMS5003;70055;39.436;-77.514;2023-06-10T09:07:13;34;32;
80692;PMS5003;70055;39.436;-77.514;2023-06-10T09:09:43;32;31;
80692;PMS5003;70055;39.436;-77.514;2023-06-10T09:12:12;34;33;
80692;PMS5003;70055;39.436;-77.514;2023-06-10T09:14:41;33;31;
80692;PMS5003;70055;39.436;-77.514;2023-06-10T09:17:08;34;33;
80692;PMS5003;70055;39.436;-77.514;2023-06-10T09:19:37;31;31;
80692;PMS5003;70055;39.436;-77.514;2023-06-10T09:22:07;33;31;
80692;PMS5003;70055;39.436;-77.514;2023-06-10T09:24:34;33;33;
80692;PMS5003;70055;39.436;-77.514;2023-06-10T09:27:03;32;31;
80692;PMS5003;70055;39.436;-77.514;2023-06-10T09:29:32;30;30;
80692;PMS5003;70055;39.436;-77.514;2023-06-10T09:32:12;35;34;
80692;PMS5003;70055;39.436;-77.514;2023-06-10T09:34:40;40;39;
80692;PMS5003;70055;39.436;-77.514;2023-06-10T09:37:08;35;33;
80692;PMS5003;70055;39.436;-77.514;2023-06-10T09:39:37;34;33;
80692;PMS5003;70055;39.436;-77.514;2023-06-10T09:42:15;33;32;
80692;PMS5003;70055;39.436;-77.514;2023-06-10T09:44:49;31;30;
80692;PMS5003;70055;39.436;-77.514;2023-06-10T09:47:19;30;30;
80692;PMS5003;70055;39.436;-77.514;2023-06-10T09:49:48;38;37;
80692;PMS5003;70055;39.436;-77.514;2023-06-10T09:52:21;34;33;
80692;PMS5003;70055;39.436;-77.514;2023-06-10T09:54:48;38;36;
80692;PMS5003;70055;39.436;-77.514;2023-06-10T09:57:17;40;39;
80692;PMS5003;70055;39.436;-77.514;2023-06-10T09:59:45;36;35;
80692;PMS5003;70055;39.436;-77.514;2023-06-10T10:02:14;33;31;
80692;PMS5003;70055;39.436;-77.514;2023-06-10T10:04:43;35;35;
80692;PMS5003;70055;39.436;-77.514;2023-06-10T10:07:11;35;34;
80692;PMS5003;70055;39.436;-77.514;2023-06-10T10:09:40;36;35;
80692;PMS5003;70055;39.436;-77.514;2023-06-10T10:12:10;38;37;
80692;PMS5003;70055;39.436;-77.514;2023-06-10T10:14:39;35;35;
80692;PMS5003;70055;39.436;-77.514;2023-06-10T10:17:14;41;41;
80692;PMS5003;70055;39.436;-77.514;2023-06-10T10:19:45;36;36;
80692;PMS5003;70055;39.436;-77.514;2023-06-10T10:22:18;39;35;
80692;PMS5003;70055;39.436;-77.514;2023-06-10T10:24:53;42;41;
80692;PMS5003;70055;39.436;-77.514;2023-06-10T10:27:25;38;37;
80692;PMS5003;70055;39.436;-77.514;2023-06-10T10:29:55;37;37;
80692;PMS5003;70055;39.436;-77.514;2023-06-10T10:32:28;40;39;
80692;PMS5003;70055;39.436;-77.514;2023-06-10T10:35:05;38;37;
80692;PMS5003;70055;39.436;-77.514;2023-06-10T10:37:39;32;32;
80692;PMS5003;70055;39.436;-77.514;2023-06-10T10:40:08;41;41;
80692;PMS5003;70055;39.436;-77.514;2023-06-10T10:42:37;37;36;
80692;PMS5003;70055;39.436;-77.514;2023-06-10T10:45:07;37;36;
80692;PMS5003;70055;39.436;-77.514;2023-06-10T10:47:36;37;37;
80692;PMS5003;70055;39.436;-77.514;2023-06-10T10:50:12;39;37;
80692;PMS5003;70055;39.436;-77.514;2023-06-10T10:52:54;37;36;
80692;PMS5003;70055;39.436;-77.514;2023-06-10T10:55:25;38;36;
80692;PMS5003;70055;39.436;-77.514;2023-06-10T10:57:54;37;36;
80692;PMS5003;70055;39.436;-77.514;2023-06-10T11:00:25;36;34;
80692;PMS5003;70055;39.436;-77.514;2023-06-10T11:02:57;38;37;
80692;PMS5003;70055;39.436;-77.514;2023-06-10T11:05:32;39;38;
80692;PMS5003;70055;39.436;-77.514;2023-06-10T11:08:05;41;41;
80692;PMS5003;70055;39.436;-77.514;2023-06-10T11:10:33;37;37;
80692;PMS5003;70055;39.436;-77.514;2023-06-10T11:13:05;43;41;
80692;PMS5003;70055;39.436;-77.514;2023-06-10T11:15:38;36;35;
80692;PMS5003;70055;39.436;-77.514;2023-06-10T11:18:11;36;35;
80692;PMS5003;70055;39.436;-77.514;2023-06-10T11:20:43;42;40;
80692;PMS5003;70055;39.436;-77.514;2023-06-10T11:23:34;37;37;
80692;PMS5003;70055;39.436;-77.514;2023-06-10T11:26:43;37;35;
80692;PMS5003;70055;39.436;-77.514;2023-06-10T11:29:11;38;37;
80692;PMS5003;70055;39.436;-77.514;2023-06-10T11:31:43;34;34;
80692;PMS5003;70055;39.436;-77.514;2023-06-10T11:34:12;34;33;
80692;PMS5003;70055;39.436;-77.514;2023-06-10T11:36:42;37;36;
80692;PMS5003;70055;39.436;-77.514;2023-06-10T11:39:10;37;36;
80692;PMS5003;70055;39.436;-77.514;2023-06-10T11:41:39;41;40;
80692;PMS5003;70055;39.436;-77.514;2023-06-10T11:44:08;35;35;
80692;PMS5003;70055;39.436;-77.514;2023-06-10T11:46:37;36;33;
80692;PMS5003;70055;39.436;-77.514;2023-06-10T11:49:05;34;34;
80692;PMS5003;70055;39.436;-77.514;2023-06-10T11:51:34;34;32;
80692;PMS5003;70055;39.436;-77.514;2023-06-10T11:54:03;38;38;
80692;PMS5003;70055;39.436;-77.514;2023-06-10T11:56:31;37;36;
80692;PMS5003;70055;39.436;-77.514;2023-06-10T11:58:59;34;34;
80692;PMS5003;70055;39.436;-77.514;2023-06-10T12:01:28;36;36;
80692;PMS5003;70055;39.436;-77.514;2023-06-10T12:03:59;37;37;
80692;PMS5003;70055;39.436;-77.514;2023-06-10T12:06:42;38;37;
80692;PMS5003;70055;39.436;-77.514;2023-06-10T12:09:14;38;37;
80692;PMS5003;70055;39.436;-77.514;2023-06-10T12:11:44;32;32;
80692;PMS5003;70055;39.436;-77.514;2023-06-10T12:14:14;32;30;
80692;PMS5003;70055;39.436;-77.514;2023-06-10T12:16:48;34;34;
80692;PMS5003;70055;39.436;-77.514;2023-06-10T12:19:16;33;33;
80692;PMS5003;70055;39.436;-77.514;2023-06-10T12:21:44;35;35;
80692;PMS5003;70055;39.436;-77.514;2023-06-10T12:24:13;30;30;
80692;PMS5003;70055;39.436;-77.514;2023-06-10T12:26:41;34;32;
80692;PMS5003;70055;39.436;-77.514;2023-06-10T12:29:17;34;33;
80692;PMS5003;70055;39.436;-77.514;2023-06-10T12:31:54;36;34;
80692;PMS5003;70055;39.436;-77.514;2023-06-10T12:34:29;34;32;
80692;PMS5003;70055;39.436;-77.514;2023-06-10T12:36:58;27;27;
80692;PMS5003;70055;39.436;-77.514;2023-06-10T12:39:26;32;31;
80692;PMS5003;70055;39.436;-77.514;2023-06-10T12:41:54;37;37;
80692;PMS5003;70055;39.436;-77.514;2023-06-10T12:44:31;36;35;
80692;PMS5003;70055;39.436;-77.514;2023-06-10T12:47:00;35;34;
80692;PMS5003;70055;39.436;-77.514;2023-06-10T12:49:34;32;31;
80692;PMS5003;70055;39.436;-77.514;2023-06-10T12:52:02;35;35;
80692;PMS5003;70055;39.436;-77.514;2023-06-10T12:54:31;29;29;
80692;PMS5003;70055;39.436;-77.514;2023-06-10T12:56:59;34;33;
80692;PMS5003;70055;39.436;-77.514;2023-06-10T12:59:28;33;33;
80692;PMS5003;70055;39.436;-77.514;2023-06-10T13:01:56;36;35;
80692;PMS5003;70055;39.436;-77.514;2023-06-10T13:04:25;33;32;
80692;PMS5003;70055;39.436;-77.514;2023-06-10T13:06:53;35;34;
80692;PMS5003;70055;39.436;-77.514;2023-06-10T13:09:21;31;31;
80692;PMS5003;70055;39.436;-77.514;2023-06-10T13:11:49;33;32;
80692;PMS5003;70055;39.436;-77.514;2023-06-10T13:14:18;35;35;
80692;PMS5003;70055;39.436;-77.514;2023-06-10T13:16:46;28;28;
80692;PMS5003;70055;39.436;-77.514;2023-06-10T13:19:14;29;29;
80692;PMS5003;70055;39.436;-77.514;2023-06-10T13:21:43;31;31;
80692;PMS5003;70055;39.436;-77.514;2023-06-10T13:24:11;36;35;
80692;PMS5003;70055;39.436;-77.514;2023-06-10T13:26:39;32;32;
80692;PMS5003;70055;39.436;-77.514;2023-06-10T13:29:06;33;33;
80692;PMS5003;70055;39.436;-77.514;2023-06-10T13:31:34;32;32;
80692;PMS5003;70055;39.436;-77.514;2023-06-10T13:34:03;37;36;
80692;PMS5003;70055;39.436;-77.514;2023-06-10T13:36:31;31;31;
80692;PMS5003;70055;39.436;-77.514;2023-06-10T13:39:00;33;33;
80692;PMS5003;70055;39.436;-77.514;2023-06-10T13:41:29;31;31;
80692;PMS5003;70055;39.436;-77.514;2023-06-10T13:43:57;32;29;
80692;PMS5003;70055;39.436;-77.514;2023-06-10T13:46:24;32;31;
80692;PMS5003;70055;39.436;-77.514;2023-06-10T13:48:52;30;29;
80692;PMS5003;70055;39.436;-77.514;2023-06-10T13:51:21;32;32;
80692;PMS5003;70055;39.436;-77.514;2023-06-10T13:53:49;26;26;
80692;PMS5003;70055;39.436;-77.514;2023-06-10T13:56:17;34;33;
80692;PMS5003;70055;39.436;-77.514;2023-06-10T13:58:46;31;31;
80692;PMS5003;70055;39.436;-77.514;2023-06-10T14:01:14;31;31;
80692;PMS5003;70055;39.436;-77.514;2023-06-10T14:03:42;33;32;
80692;PMS5003;70055;39.436;-77.514;2023-06-10T14:06:10;33;32;
80692;PMS5003;70055;39.436;-77.514;2023-06-10T14:08:39;31;30;
80692;PMS5003;70055;39.436;-77.514;2023-06-10T14:11:07;32;32;
80692;PMS5003;70055;39.436;-77.514;2023-06-10T14:13:36;31;30;
80692;PMS5003;70055;39.436;-77.514;2023-06-10T14:16:04;29;28;
80692;PMS5003;70055;39.436;-77.514;2023-06-10T14:18:33;35;35;
80692;PMS5003;70055;39.436;-77.514;2023-06-10T14:21:01;29;28;
80692;PMS5003;70055;39.436;-77.514;2023-06-10T14:23:29;33;33;
80692;PMS5003;70055;39.436;-77.514;2023-06-10T14:25:58;36;35;
80692;PMS5003;70055;39.436;-77.514;2023-06-10T14:28:26;28;28;
80692;PMS5003;70055;39.436;-77.514;2023-06-10T14:30:55;31;30;
80692;PMS5003;70055;39.436;-77.514;2023-06-10T14:33:22;29;29;
80692;PMS5003;70055;39.436;-77.514;2023-06-10T14:35:50;29;29;
80692;PMS5003;70055;39.436;-77.514;2023-06-10T14:38:18;30;30;
80692;PMS5003;70055;39.436;-77.514;2023-06-10T14:40:46;33;32;
80692;PMS5003;70055;39.436;-77.514;2023-06-10T14:43:15;30;29;
80692;PMS5003;70055;39.436;-77.514;2023-06-10T14:45:43;37;37;
80692;PMS5003;70055;39.436;-77.514;2023-06-10T14:48:12;36;35;
80692;PMS5003;70055;39.436;-77.514;2023-06-10T14:50:40;32;32;
80692;PMS5003;70055;39.436;-77.514;2023-06-10T14:53:07;32;32;
80692;PMS5003;70055;39.436;-77.514;2023-06-10T14:55:36;36;35;
80692;PMS5003;70055;39.436;-77.514;2023-06-10T14:58:04;38;37;
80692;PMS5003;70055;39.436;-77.514;2023-06-10T15:00:32;32;32;
80692;PMS5003;70055;39.436;-77.514;2023-06-10T15:03:01;32;30;
80692;PMS5003;70055;39.436;-77.514;2023-06-10T15:05:29;33;32;
80692;PMS5003;70055;39.436;-77.514;2023-06-10T15:07:57;32;32;
80692;PMS5003;70055;39.436;-77.514;2023-06-10T15:10:25;31;30;
80692;PMS5003;70055;39.436;-77.514;2023-06-10T15:12:54;29;29;
80692;PMS5003;70055;39.436;-77.514;2023-06-10T15:15:22;34;34;
80692;PMS5003;70055;39.436;-77.514;2023-06-10T15:17:50;34;34;
80692;PMS5003;70055;39.436;-77.514;2023-06-10T15:20:18;36;36;
80692;PMS5003;70055;39.436;-77.514;2023-06-10T15:22:46;30;30;
80692;PMS5003;70055;39.436;-77.514;2023-06-10T15:25:15;32;31;
80692;PMS5003;70055;39.436;-77.514;2023-06-10T15:27:44;35;35;
80692;PMS5003;70055;39.436;-77.514;2023-06-10T15:30:12;35;34;
80692;PMS5003;70055;39.436;-77.514;2023-06-10T15:32:41;29;29;
80692;PMS5003;70055;39.436;-77.514;2023-06-10T15:35:09;36;34;
80692;PMS5003;70055;39.436;-77.514;2023-06-10T15:37:37;33;32;
80692;PMS5003;70055;39.436;-77.514;2023-06-10T15:40:07;31;31;
80692;PMS5003;70055;39.436;-77.514;2023-06-10T15:42:35;34;33;
80692;PMS5003;70055;39.436;-77.514;2023-06-10T15:45:10;35;35;
80692;PMS5003;70055;39.436;-77.514;2023-06-10T15:47:39;31;31;
80692;PMS5003;70055;39.436;-77.514;2023-06-10T15:50:08;34;33;
80692;PMS5003;70055;39.436;-77.514;2023-06-10T15:52:37;39;36;
80692;PMS5003;70055;39.436;-77.514;2023-06-10T15:55:05;40;39;
80692;PMS5003;70055;39.436;-77.514;2023-06-10T15:57:33;35;35;
80692;PMS5003;70055;39.436;-77.514;2023-06-10T16:00:01;37;34;